createdAt,value
2019-06-15T00:00:50.107Z,27.10
2019-06-15T00:03:18.343Z,27.00
2019-06-15T00:05:46.985Z,26.90
2019-06-15T00:08:15.257Z,27.00
2019-06-15T00:10:43.467Z,26.90
2019-06-15T00:13:11.699Z,27.00
2019-06-15T00:15:39.871Z,27.00
2019-06-15T00:18:08.292Z,26.90
2019-06-15T00:20:36.555Z,26.70
2019-06-15T00:23:04.748Z,26.50
2019-06-15T00:25:33.132Z,26.40
2019-06-15T00:28:01.359Z,26.30
2019-06-15T00:30:48.514Z,26.40
2019-06-15T00:33:16.922Z,26.20
2019-06-15T00:35:44.967Z,25.90
2019-06-15T00:38:13.172Z,26.00
2019-06-15T00:40:41.386Z,26.10
2019-06-15T00:43:09.614Z,26.30
2019-06-15T00:45:37.757Z,26.30
2019-06-15T00:48:06.258Z,26.30
2019-06-15T00:50:34.484Z,26.40
2019-06-15T00:53:02.749Z,26.50
2019-06-15T00:55:30.984Z,26.40
2019-06-15T00:57:59.205Z,26.50
2019-06-15T01:00:27.416Z,26.50
2019-06-15T01:02:55.666Z,26.60
2019-06-15T01:05:23.763Z,26.60
2019-06-15T01:07:52.035Z,26.60
2019-06-15T01:10:20.537Z,26.70
2019-06-15T01:12:48.963Z,26.70
2019-06-15T01:15:18.980Z,26.70
2019-06-15T01:17:47.625Z,26.60
2019-06-15T01:20:37.432Z,26.70
2019-06-15T01:23:05.764Z,26.60
2019-06-15T01:25:34.169Z,26.60
2019-06-15T01:28:02.690Z,26.60
2019-06-15T01:30:31.134Z,26.60
2019-06-15T01:32:59.477Z,26.60
2019-06-15T01:35:27.819Z,26.60
2019-06-15T01:37:56.032Z,26.60
2019-06-15T01:40:24.304Z,26.60
2019-06-15T01:42:52.783Z,26.60
2019-06-15T01:45:25.814Z,26.60
2019-06-15T01:47:54.445Z,26.60
2019-06-15T01:50:23.174Z,26.40
2019-06-15T01:52:51.524Z,26.30
2019-06-15T01:55:21.151Z,26.10
2019-06-15T01:57:49.654Z,26.00
2019-06-15T02:00:19.203Z,25.90
2019-06-15T02:02:47.496Z,25.90
2019-06-15T02:05:16.248Z,25.80
2019-06-15T02:07:44.658Z,25.80
2019-06-15T02:10:16.181Z,25.90
2019-06-15T02:12:44.632Z,25.80
2019-06-15T02:15:13.756Z,25.70
2019-06-15T02:17:41.959Z,25.80
2019-06-15T02:20:10.508Z,26.00
2019-06-15T02:22:38.716Z,26.00
2019-06-15T02:25:07.274Z,26.00
2019-06-15T02:27:35.661Z,25.90
2019-06-15T02:30:05.059Z,25.80
2019-06-15T02:32:33.482Z,25.80
2019-06-15T02:35:01.777Z,25.80
2019-06-15T02:37:30.105Z,26.00
2019-06-15T02:39:58.404Z,26.00
2019-06-15T02:42:26.550Z,26.00
2019-06-15T02:44:54.835Z,26.00
2019-06-15T02:47:23.140Z,26.10
2019-06-15T02:49:51.803Z,26.00
2019-06-15T02:52:20.072Z,25.90
2019-06-15T02:54:48.565Z,25.90
2019-06-15T02:57:16.964Z,26.00
2019-06-15T02:59:45.551Z,26.30
2019-06-15T03:02:13.918Z,26.40
2019-06-15T03:04:42.209Z,26.50
2019-06-15T03:07:10.788Z,26.60
2019-06-15T03:09:39.044Z,26.60
2019-06-15T03:12:07.344Z,26.30
2019-06-15T03:14:36.138Z,26.20
2019-06-15T03:17:04.395Z,26.20
2019-06-15T03:19:32.697Z,26.40
2019-06-15T03:22:01.026Z,26.40
2019-06-15T03:24:29.297Z,26.40
2019-06-15T03:26:57.707Z,26.40
2019-06-15T03:29:26.092Z,26.30
2019-06-15T03:31:54.339Z,26.20
2019-06-15T03:34:22.781Z,26.30
2019-06-15T03:36:50.998Z,26.40
2019-06-15T03:39:19.238Z,26.40
2019-06-15T03:41:47.563Z,26.40
2019-06-15T03:44:16.117Z,26.40
2019-06-15T03:46:44.283Z,26.30
2019-06-15T03:49:12.624Z,26.30
2019-06-15T03:51:41.264Z,26.10
2019-06-15T03:54:09.551Z,26.10
2019-06-15T03:56:37.969Z,26.00
2019-06-15T03:59:06.314Z,25.70
2019-06-15T04:01:41.054Z,25.80
2019-06-15T04:04:09.280Z,25.80
2019-06-15T04:06:37.678Z,25.80
2019-06-15T04:09:07.173Z,25.80
2019-06-15T04:11:35.465Z,25.70
2019-06-15T04:14:04.233Z,25.90
2019-06-15T04:16:34.136Z,25.80
2019-06-15T04:19:02.425Z,25.60
2019-06-15T04:21:30.600Z,25.50
2019-06-15T04:23:58.882Z,25.40
2019-06-15T04:26:35.518Z,25.60
2019-06-15T04:28:57.377Z,25.80
2019-06-15T04:31:25.804Z,25.90
2019-06-15T04:33:54.036Z,25.80
2019-06-15T04:36:22.305Z,25.80
2019-06-15T04:38:50.851Z,25.90
2019-06-15T04:41:19.160Z,26.00
2019-06-15T04:43:47.236Z,26.20
2019-06-15T04:46:15.469Z,26.30
2019-06-15T04:48:43.663Z,26.40
2019-06-15T04:51:11.979Z,26.50
2019-06-15T04:53:40.380Z,26.70
2019-06-15T04:56:08.610Z,26.40
2019-06-15T04:58:36.990Z,26.30
2019-06-15T05:01:05.603Z,26.40
2019-06-15T05:03:33.967Z,26.50
2019-06-15T05:06:02.637Z,26.50
2019-06-15T05:08:31.058Z,26.70
2019-06-15T05:10:59.930Z,26.90
2019-06-15T05:13:29.514Z,27.30
2019-06-15T05:15:58.165Z,27.20
2019-06-15T05:18:26.459Z,27.30
2019-06-15T05:20:54.635Z,27.50
2019-06-15T05:23:22.955Z,27.70
2019-06-15T05:25:51.417Z,27.80
2019-06-15T05:28:19.782Z,28.00
2019-06-15T05:30:48.128Z,28.20
2019-06-15T05:33:16.396Z,28.40
2019-06-15T05:35:44.741Z,28.60
2019-06-15T05:38:13.047Z,28.50
2019-06-15T05:40:42.932Z,28.50
2019-06-15T05:43:11.384Z,28.70
2019-06-15T05:45:40.389Z,28.90
2019-06-15T05:48:08.924Z,29.10
2019-06-15T05:50:37.139Z,29.40
2019-06-15T05:53:05.536Z,29.70
2019-06-15T05:55:33.876Z,29.70
2019-06-15T05:58:02.178Z,29.70
2019-06-15T06:00:31.184Z,29.60
2019-06-15T06:02:59.432Z,29.80
2019-06-15T06:05:27.740Z,30.00
2019-06-15T06:07:59.023Z,30.20
2019-06-15T06:10:27.242Z,30.30
2019-06-15T06:12:55.611Z,30.50
2019-06-15T06:15:26.714Z,30.60
2019-06-15T06:17:53.889Z,30.30
2019-06-15T06:20:22.816Z,30.80
2019-06-15T06:22:51.197Z,31.20
2019-06-15T06:25:19.671Z,31.50
2019-06-15T06:27:48.171Z,32.00
2019-06-15T06:30:16.564Z,32.20
2019-06-15T06:32:44.886Z,32.10
2019-06-15T06:35:13.674Z,32.40
2019-06-15T06:37:42.052Z,32.40
2019-06-15T06:40:11.203Z,32.40
2019-06-15T06:42:39.412Z,32.70
2019-06-15T06:45:10.134Z,32.80
2019-06-15T06:47:38.373Z,32.90
2019-06-15T06:50:07.351Z,32.90
2019-06-15T06:52:35.659Z,32.60
2019-06-15T06:55:04.194Z,32.60
2019-06-15T06:57:32.594Z,32.60
2019-06-15T07:00:00.948Z,32.50
2019-06-15T07:02:29.232Z,32.20
2019-06-15T07:04:57.506Z,32.20
2019-06-15T07:07:25.927Z,32.00
2019-06-15T07:09:54.257Z,32.00
2019-06-15T07:12:22.558Z,32.30
2019-06-15T07:14:50.906Z,32.20
2019-06-15T07:17:19.182Z,32.60
2019-06-15T07:19:47.181Z,33.50
2019-06-15T07:22:15.729Z,33.70
2019-06-15T07:24:44.222Z,33.10
2019-06-15T07:27:12.791Z,33.50
2019-06-15T07:29:41.191Z,33.70
2019-06-15T07:32:09.649Z,33.70
2019-06-15T07:34:37.930Z,33.80
2019-06-15T07:37:06.330Z,34.10
2019-06-15T07:39:34.311Z,34.60
2019-06-15T07:42:02.579Z,35.20
2019-06-15T07:44:32.635Z,35.60
2019-06-15T07:47:01.049Z,35.80
2019-06-15T07:49:29.219Z,36.10
2019-06-15T07:51:58.343Z,36.50
2019-06-15T07:54:26.692Z,36.80
2019-06-15T07:56:55.071Z,36.70
2019-06-15T07:59:23.552Z,37.10
2019-06-15T08:01:51.918Z,37.20
2019-06-15T08:04:21.847Z,37.20
2019-06-15T08:06:50.172Z,37.50
2019-06-15T08:09:18.515Z,37.60
2019-06-15T08:11:46.677Z,37.70
2019-06-15T08:14:15.004Z,37.60
2019-06-15T08:16:43.267Z,37.50
2019-06-15T08:19:11.605Z,37.80
2019-06-15T08:21:39.740Z,37.90
2019-06-15T08:24:08.062Z,37.90
2019-06-15T08:26:38.608Z,38.00
2019-06-15T08:29:06.908Z,38.00
2019-06-15T08:31:35.173Z,37.90
2019-06-15T08:36:52.586Z,37.20
2019-06-15T08:39:20.879Z,37.20
2019-06-15T08:41:49.124Z,37.30
2019-06-15T08:44:17.638Z,37.20
2019-06-15T08:46:45.813Z,37.20
2019-06-15T08:49:14.068Z,37.30
2019-06-15T08:51:42.436Z,37.20
2019-06-15T08:54:10.713Z,37.50
2019-06-15T08:56:58.328Z,37.60
2019-06-15T08:59:27.140Z,37.60
2019-06-15T09:01:55.406Z,37.60
2019-06-15T09:04:23.730Z,37.90
2019-06-15T09:06:51.954Z,38.10
2019-06-15T09:09:20.348Z,38.10
2019-06-15T09:11:48.844Z,37.60
2019-06-15T09:14:17.106Z,37.30
2019-06-15T09:16:45.364Z,37.40
2019-06-15T09:19:13.709Z,37.30
2019-06-15T09:21:41.917Z,37.40
2019-06-15T09:24:10.305Z,37.20
2019-06-15T09:26:38.714Z,36.90
2019-06-15T09:29:11.138Z,37.00
2019-06-15T09:31:37.069Z,37.30
2019-06-15T09:34:18.077Z,37.20
2019-06-15T09:36:35.257Z,37.20
2019-06-15T09:39:05.256Z,37.20
2019-06-15T09:41:33.755Z,37.50
2019-06-15T09:44:02.146Z,37.60
2019-06-15T09:46:30.545Z,37.90
2019-06-15T09:49:00.605Z,37.50
2019-06-15T09:51:28.965Z,37.70
2019-06-15T09:53:57.387Z,37.40
2019-06-15T09:56:25.834Z,37.70
2019-06-15T09:58:54.064Z,37.90
2019-06-15T10:01:22.205Z,37.60
2019-06-15T10:03:50.442Z,37.90
2019-06-15T10:06:18.664Z,38.10
2019-06-15T10:08:46.958Z,38.00
2019-06-15T10:11:15.285Z,38.00
2019-06-15T10:13:43.502Z,38.30
2019-06-15T10:16:11.870Z,38.40
2019-06-15T10:18:40.185Z,38.70
2019-06-15T10:21:08.423Z,38.80
2019-06-15T10:23:36.817Z,38.90
2019-06-15T10:26:05.033Z,38.90
2019-06-15T10:28:33.258Z,38.80
2019-06-15T10:31:01.630Z,38.60
2019-06-15T10:33:30.738Z,38.50
2019-06-15T10:35:59.205Z,38.30
2019-06-15T10:38:27.532Z,38.20
2019-06-15T10:40:55.809Z,38.10
2019-06-15T10:43:24.162Z,37.90
2019-06-15T10:45:52.414Z,38.10
2019-06-15T10:48:20.842Z,38.20
2019-06-15T10:50:50.600Z,38.10
2019-06-15T10:53:18.900Z,38.00
2019-06-15T10:55:47.185Z,38.10
2019-06-15T10:58:15.441Z,38.20
2019-06-15T11:00:47.969Z,37.80
2019-06-15T11:03:15.293Z,37.90
2019-06-15T11:05:43.677Z,38.00
2019-06-15T11:08:12.021Z,37.60
2019-06-15T11:10:50.733Z,37.70
2019-06-15T11:13:19.022Z,37.60
2019-06-15T11:15:47.595Z,37.60
2019-06-15T11:18:15.972Z,37.60
2019-06-15T11:20:44.177Z,37.50
2019-06-15T11:23:12.516Z,37.60
2019-06-15T11:25:40.944Z,37.90
2019-06-15T11:28:09.058Z,38.30
2019-06-15T11:30:37.359Z,38.60
2019-06-15T11:33:05.601Z,37.80
2019-06-15T11:35:33.695Z,38.20
2019-06-15T11:38:01.957Z,38.50
2019-06-15T11:40:30.275Z,38.90
2019-06-15T11:42:58.601Z,39.40
2019-06-15T11:45:26.914Z,39.00
2019-06-15T11:47:55.282Z,38.30
2019-06-15T11:50:23.456Z,38.40
2019-06-15T11:52:51.861Z,37.80
2019-06-15T11:55:20.284Z,37.20
2019-06-15T11:57:48.385Z,38.00
2019-06-15T12:00:31.184Z,37.70
2019-06-15T12:02:52.490Z,37.20
2019-06-15T12:05:20.686Z,37.30
2019-06-15T12:07:48.972Z,38.30
2019-06-15T12:10:18.908Z,38.80
2019-06-15T12:12:47.140Z,38.80
2019-06-15T12:15:17.170Z,38.30
2019-06-15T12:17:45.504Z,36.90
2019-06-15T12:20:13.790Z,37.30
2019-06-15T12:22:42.063Z,37.60
2019-06-15T12:25:10.974Z,37.80
2019-06-15T12:27:39.470Z,38.20
2019-06-15T12:30:08.915Z,38.30
2019-06-15T12:32:37.279Z,37.70
2019-06-15T12:35:07.098Z,37.80
2019-06-15T12:37:35.339Z,37.70
2019-06-15T12:40:03.992Z,37.50
2019-06-15T12:42:32.812Z,37.50
2019-06-15T12:45:01.098Z,38.10
2019-06-15T12:47:29.317Z,37.80
2019-06-15T12:49:57.537Z,37.80
2019-06-15T12:52:25.812Z,38.20
2019-06-15T12:54:54.220Z,36.50
2019-06-15T12:57:22.481Z,36.40
2019-06-15T12:59:50.767Z,35.70
2019-06-15T13:02:19.096Z,35.60
2019-06-15T13:04:47.378Z,35.90
2019-06-15T13:07:15.454Z,36.10
2019-06-15T13:09:43.652Z,35.40
2019-06-15T13:12:11.876Z,35.10
2019-06-15T13:14:39.990Z,35.80
2019-06-15T13:17:07.968Z,36.50
2019-06-15T13:19:36.187Z,36.50
2019-06-15T13:22:06.411Z,35.80
2019-06-15T13:24:34.341Z,36.50
2019-06-15T13:27:02.583Z,37.00
2019-06-15T13:29:30.770Z,36.90
2019-06-15T13:31:58.906Z,36.80
2019-06-15T13:34:27.218Z,36.00
2019-06-15T13:36:55.496Z,35.30
2019-06-15T13:39:23.696Z,34.90
2019-06-15T13:41:51.971Z,35.10
2019-06-15T13:44:20.076Z,35.20
2019-06-15T13:46:48.221Z,35.80
2019-06-15T13:49:16.522Z,35.90
2019-06-15T13:51:44.843Z,35.60
2019-06-15T13:54:13.191Z,35.40
2019-06-15T13:56:41.427Z,35.60
2019-06-15T13:59:09.529Z,35.40
2019-06-15T14:01:37.870Z,35.40
2019-06-15T14:04:05.895Z,36.00
2019-06-15T14:06:34.117Z,36.00
2019-06-15T14:09:05.253Z,36.20
2019-06-15T14:11:32.809Z,36.60
2019-06-15T14:14:00.993Z,36.60
2019-06-15T14:16:29.435Z,36.60
2019-06-15T14:18:58.013Z,36.50
2019-06-15T14:21:26.162Z,35.70
2019-06-15T14:23:56.101Z,35.00
2019-06-15T14:26:24.701Z,34.90
2019-06-15T14:28:53.047Z,35.40
2019-06-15T14:31:21.280Z,35.70
2019-06-15T14:33:49.626Z,35.10
2019-06-15T14:36:17.736Z,34.80
2019-06-15T14:38:45.982Z,34.90
2019-06-15T14:41:14.177Z,35.40
2019-06-15T14:43:42.389Z,35.50
2019-06-15T14:46:10.577Z,35.90
2019-06-15T14:48:38.847Z,35.90
2019-06-15T14:51:06.936Z,35.20
2019-06-15T14:53:36.694Z,34.90
2019-06-15T14:56:07.154Z,34.40
2019-06-15T14:58:36.564Z,34.50
2019-06-15T15:01:06.505Z,34.60
2019-06-15T15:03:37.419Z,34.60
2019-06-15T15:06:06.368Z,34.90
2019-06-15T15:08:36.772Z,35.10
2019-06-15T15:11:06.460Z,35.00
2019-06-15T15:13:36.606Z,34.70
2019-06-15T15:16:07.076Z,35.00
2019-06-15T15:18:34.555Z,35.50
2019-06-15T15:21:02.711Z,36.20
2019-06-15T15:23:30.949Z,36.10
2019-06-15T15:25:59.184Z,35.80
2019-06-15T15:28:30.350Z,36.10
2019-06-15T15:30:57.584Z,36.00
2019-06-15T15:33:25.888Z,35.70
2019-06-15T15:35:54.035Z,35.40
2019-06-15T15:38:22.215Z,35.00
2019-06-15T15:40:50.453Z,35.00
2019-06-15T15:43:18.643Z,34.90
2019-06-15T15:45:46.959Z,35.00
2019-06-15T15:48:18.550Z,35.20
2019-06-15T15:50:47.000Z,35.20
2019-06-15T15:53:15.203Z,35.00
2019-06-15T15:55:43.377Z,35.50
2019-06-15T15:58:11.607Z,35.40
2019-06-15T16:00:39.883Z,35.60
2019-06-15T16:03:08.242Z,35.70
2019-06-15T16:05:37.066Z,35.70
2019-06-15T16:08:06.633Z,35.40
2019-06-15T16:10:37.435Z,35.20
2019-06-15T16:13:06.445Z,34.90
2019-06-15T16:15:37.197Z,34.90
2019-06-15T16:18:06.836Z,35.40
2019-06-15T16:20:36.952Z,35.40
2019-06-15T16:23:07.195Z,35.20
2019-06-15T16:25:36.991Z,35.00
2019-06-15T16:28:06.873Z,35.00
2019-06-15T16:30:59.446Z,35.10
2019-06-15T16:33:07.720Z,35.20
2019-06-15T16:35:36.156Z,35.40
2019-06-15T16:38:06.856Z,35.30
2019-06-15T16:40:38.165Z,35.40
2019-06-15T16:43:07.096Z,34.90
2019-06-15T16:45:35.609Z,35.10
2019-06-15T16:48:06.219Z,35.20
2019-06-15T16:50:36.582Z,35.10
2019-06-15T16:53:04.069Z,35.20
2019-06-15T16:55:32.224Z,35.20
2019-06-15T16:58:00.433Z,35.20
2019-06-15T17:00:32.687Z,35.20
2019-06-15T17:02:59.994Z,35.20
2019-06-15T17:05:28.220Z,35.10
2019-06-15T17:07:56.652Z,35.00
2019-06-15T17:10:32.670Z,35.10
2019-06-15T17:13:00.692Z,35.20
2019-06-15T17:15:28.802Z,35.00
2019-06-15T17:17:57.082Z,35.00
2019-06-15T17:20:28.929Z,34.80
2019-06-15T17:22:57.176Z,34.90
2019-06-15T17:25:26.994Z,34.90
2019-06-15T17:27:56.333Z,34.90
2019-06-15T17:30:26.417Z,34.90
2019-06-15T17:32:56.693Z,34.70
2019-06-15T17:35:24.421Z,34.80
2019-06-15T17:37:52.614Z,34.80
2019-06-15T17:40:21.075Z,34.80
2019-06-15T17:42:49.099Z,34.80
2019-06-15T17:45:17.288Z,34.80
2019-06-15T17:47:46.744Z,34.60
2019-06-15T17:50:17.062Z,34.50
2019-06-15T17:52:46.802Z,34.50
2019-06-15T17:55:17.703Z,34.70
2019-06-15T17:57:49.323Z,34.90
2019-06-15T18:00:17.938Z,34.90
2019-06-15T18:02:47.937Z,34.80
2019-06-15T18:05:17.963Z,34.60
2019-06-15T18:07:46.982Z,34.60
2019-06-15T18:10:16.015Z,34.30
2019-06-15T18:12:46.745Z,34.30
2019-06-15T18:15:14.373Z,34.50
2019-06-15T18:17:42.567Z,34.60
2019-06-15T18:20:11.891Z,34.80
2019-06-15T18:22:40.033Z,34.80
2019-06-15T18:25:08.154Z,34.80
2019-06-15T18:27:37.337Z,34.80
2019-06-15T18:30:06.545Z,34.70
2019-06-15T18:32:37.664Z,34.60
2019-06-15T18:35:06.137Z,34.40
2019-06-15T18:37:36.886Z,34.30
2019-06-15T18:40:06.601Z,34.20
2019-06-15T18:42:36.936Z,34.20
2019-06-15T18:45:06.890Z,34.10
2019-06-15T18:47:36.426Z,34.00
2019-06-15T18:50:07.567Z,34.00
2019-06-15T18:52:37.736Z,34.20
2019-06-15T18:55:05.264Z,34.00
2019-06-15T18:57:33.433Z,34.10
2019-06-15T19:00:01.626Z,34.10
2019-06-15T19:02:31.010Z,34.10
2019-06-15T19:05:01.044Z,34.00
2019-06-15T19:07:29.258Z,34.00
2019-06-15T19:09:57.390Z,33.80
2019-06-15T19:12:26.346Z,33.80
2019-06-15T19:14:56.176Z,33.80
2019-06-15T19:17:24.562Z,33.60
2019-06-15T19:19:52.695Z,33.40
2019-06-15T19:22:21.039Z,33.60
2019-06-15T19:24:50.618Z,33.40
2019-06-15T19:27:18.890Z,33.60
2019-06-15T19:29:47.114Z,33.80
2019-06-15T19:32:17.108Z,34.00
2019-06-15T19:34:50.392Z,34.00
2019-06-15T19:37:15.303Z,33.80
2019-06-15T19:39:46.165Z,33.60
2019-06-15T19:42:13.698Z,33.50
2019-06-15T19:44:41.873Z,33.30
2019-06-15T19:47:10.118Z,33.20
2019-06-15T19:49:38.313Z,33.00
2019-06-15T19:52:06.752Z,33.00
2019-06-15T19:54:36.569Z,32.80
2019-06-15T19:57:06.863Z,32.80
2019-06-15T19:59:36.593Z,32.80
2019-06-15T20:02:07.145Z,32.70
2019-06-15T20:04:36.178Z,32.50
2019-06-15T20:07:06.493Z,32.50
2019-06-15T20:09:36.929Z,32.50
2019-06-15T20:12:06.617Z,32.40
2019-06-15T20:14:36.593Z,32.40
2019-06-15T20:17:07.212Z,32.40
2019-06-15T20:19:37.521Z,32.20
2019-06-15T20:22:06.530Z,32.20
2019-06-15T20:24:36.457Z,32.20
2019-06-15T20:27:07.817Z,32.10
2019-06-15T20:29:36.097Z,31.90
2019-06-15T20:32:06.650Z,31.70
2019-06-15T20:34:36.885Z,31.60
2019-06-15T20:37:04.411Z,31.60
2019-06-15T20:39:32.563Z,31.50
2019-06-15T20:42:00.744Z,31.40
2019-06-15T20:44:28.947Z,31.30
2019-06-15T20:46:57.336Z,31.30
2019-06-15T20:49:25.619Z,31.20
2019-06-15T20:51:56.020Z,31.30
2019-06-15T20:54:23.963Z,31.20
2019-06-15T20:56:52.063Z,31.10
2019-06-15T20:59:20.559Z,31.20
2019-06-15T21:01:48.863Z,31.10
2019-06-15T21:04:17.218Z,31.10
2019-06-15T21:06:45.510Z,31.10
2019-06-15T21:09:16.303Z,31.10
2019-06-15T21:11:43.894Z,31.10
2019-06-15T21:14:12.164Z,31.10
2019-06-15T21:16:40.538Z,31.10
2019-06-15T21:19:08.756Z,30.90
2019-06-15T21:21:37.561Z,31.00
2019-06-15T21:24:06.343Z,30.90
2019-06-15T21:26:34.739Z,30.90
2019-06-15T21:29:02.859Z,30.90
2019-06-15T21:31:31.119Z,30.80
2019-06-15T21:33:59.390Z,30.70
2019-06-15T21:36:27.702Z,30.60
2019-06-15T21:38:56.265Z,30.70
2019-06-15T21:41:26.218Z,30.80
2019-06-15T21:43:56.519Z,30.70
2019-06-15T21:46:26.538Z,30.60
2019-06-15T21:48:56.374Z,30.50
2019-06-15T21:51:26.829Z,30.50
2019-06-15T21:53:56.023Z,30.40
2019-06-15T21:56:26.739Z,30.40
2019-06-15T21:58:56.386Z,30.40
2019-06-15T22:01:37.473Z,30.50
2019-06-15T22:04:06.615Z,30.40
2019-06-15T22:06:37.293Z,30.50
2019-06-15T22:09:12.936Z,30.50
2019-06-15T22:11:42.408Z,30.70
2019-06-15T22:14:10.644Z,30.70
2019-06-15T22:16:39.128Z,30.80
2019-06-15T22:19:07.491Z,30.80
2019-06-15T22:21:36.649Z,30.70
2019-06-15T22:24:06.847Z,30.50
2019-06-15T22:26:35.044Z,30.20
2019-06-15T22:29:03.281Z,30.20
2019-06-15T22:31:31.433Z,30.10
2019-06-15T22:33:59.572Z,30.10
2019-06-15T22:36:28.635Z,29.90
2019-06-15T22:38:57.136Z,30.00
2019-06-15T22:41:25.438Z,30.00
2019-06-15T22:43:53.604Z,30.00
2019-06-15T22:46:22.051Z,29.90
2019-06-15T22:48:50.572Z,29.90
2019-06-15T22:51:18.882Z,29.90
2019-06-15T22:53:47.414Z,30.10
2019-06-15T22:56:17.100Z,30.10
2019-06-15T22:58:46.108Z,30.10
2019-06-15T23:01:16.619Z,30.10
2019-06-15T23:03:46.536Z,30.00
2019-06-15T23:06:16.108Z,29.90
2019-06-15T23:08:46.768Z,29.90
2019-06-15T23:11:14.325Z,29.80
2019-06-15T23:13:42.516Z,29.80
2019-06-15T23:16:10.929Z,29.80
2019-06-15T23:18:39.207Z,29.90
2019-06-15T23:21:07.406Z,29.60
2019-06-15T23:23:36.206Z,29.60
2019-06-15T23:26:06.537Z,29.50
2019-06-15T23:28:35.949Z,29.40
2019-06-15T23:31:07.279Z,29.40
2019-06-15T23:33:34.247Z,29.40
2019-06-15T23:36:07.573Z,29.60
2019-06-15T23:38:37.759Z,29.60
2019-06-15T23:41:06.994Z,29.60
2019-06-15T23:43:36.184Z,29.60
2019-06-15T23:46:06.675Z,29.50
2019-06-15T23:48:36.412Z,29.50
2019-06-15T23:51:06.219Z,29.60
2019-06-15T23:53:36.674Z,29.60
2019-06-15T23:56:06.291Z,29.60
2019-06-15T23:58:36.871Z,29.50
